sensor_id;sensor_type;location;lat;lon;timestamp;temperature;humidity
16479;DHT22;8350;52.316;10.530;2023-06-22T00:02:18;19.00;17.40
16479;DHT22;8350;52.316;10.530;2023-06-22T00:04:46;18.90;41.60
16479;DHT22;8350;52.316;10.530;2023-06-22T00:07:13;19.00;34.60
16479;DHT22;8350;52.316;10.530;2023-06-22T00:09:40;19.00;55.20
16479;DHT22;8350;52.316;10.530;2023-06-22T00:12:08;18.90;28.70
16479;DHT22;8350;52.316;10.530;2023-06-22T00:14:35;18.90;85.70
16479;DHT22;8350;52.316;10.530;2023-06-22T00:17:02;18.70;99.90
16479;DHT22;8350;52.316;10.530;2023-06-22T00:19:31;18.50;99.90
16479;DHT22;8350;52.316;10.530;2023-06-22T00:21:59;18.40;99.90
16479;DHT22;8350;52.316;10.530;2023-06-22T00:24:32;18.40;99.90
16479;DHT22;8350;52.316;10.530;2023-06-22T00:26:59;18.50;99.90
16479;DHT22;8350;52.316;10.530;2023-06-22T00:29:26;18.40;99.90
16479;DHT22;8350;52.316;10.530;2023-06-22T00:31:53;18.40;99.90
16479;DHT22;8350;52.316;10.530;2023-06-22T00:34:20;18.50;92.50
16479;DHT22;8350;52.316;10.530;2023-06-22T00:36:47;18.50;62.40
16479;DHT22;8350;52.316;10.530;2023-06-22T00:39:15;18.60;65.70
16479;DHT22;8350;52.316;10.530;2023-06-22T00:41:42;18.50;77.70
16479;DHT22;8350;52.316;10.530;2023-06-22T00:44:09;18.40;81.90
16479;DHT22;8350;52.316;10.530;2023-06-22T00:46:36;18.40;59.50
16479;DHT22;8350;52.316;10.530;2023-06-22T00:49:03;18.40;77.90
16479;DHT22;8350;52.316;10.530;2023-06-22T00:51:31;18.30;98.40
16479;DHT22;8350;52.316;10.530;2023-06-22T00:53:59;18.30;79.60
16479;DHT22;8350;52.316;10.530;2023-06-22T00:56:27;18.20;99.90
16479;DHT22;8350;52.316;10.530;2023-06-22T00:58:55;18.20;99.90
16479;DHT22;8350;52.316;10.530;2023-06-22T01:01:23;18.30;97.20
16479;DHT22;8350;52.316;10.530;2023-06-22T01:03:55;18.40;83.80
16479;DHT22;8350;52.316;10.530;2023-06-22T01:06:28;18.50;44.80
16479;DHT22;8350;52.316;10.530;2023-06-22T01:09:02;18.50;22.10
16479;DHT22;8350;52.316;10.530;2023-06-22T01:11:38;18.50;11.10
16479;DHT22;8350;52.316;10.530;2023-06-22T01:14:12;18.30;29.30
16479;DHT22;8350;52.316;10.530;2023-06-22T01:16:41;18.10;94.80
16479;DHT22;8350;52.316;10.530;2023-06-22T01:19:28;18.00;99.90
16479;DHT22;8350;52.316;10.530;2023-06-22T01:21:56;18.00;99.90
16479;DHT22;8350;52.316;10.530;2023-06-22T01:24:30;17.80;99.90
16479;DHT22;8350;52.316;10.530;2023-06-22T01:27:09;17.60;99.90
16479;DHT22;8350;52.316;10.530;2023-06-22T01:29:43;17.40;99.90
16479;DHT22;8350;52.316;10.530;2023-06-22T01:32:11;17.40;99.90
16479;DHT22;8350;52.316;10.530;2023-06-22T01:34:39;17.40;99.90
16479;DHT22;8350;52.316;10.530;2023-06-22T01:37:07;17.40;99.90
16479;DHT22;8350;52.316;10.530;2023-06-22T01:39:37;17.20;99.90
16479;DHT22;8350;52.316;10.530;2023-06-22T01:42:04;17.20;99.90
16479;DHT22;8350;52.316;10.530;2023-06-22T01:44:32;17.20;99.90
16479;DHT22;8350;52.316;10.530;2023-06-22T01:47:01;17.20;99.90
16479;DHT22;8350;52.316;10.530;2023-06-22T01:49:29;17.10;99.90
16479;DHT22;8350;52.316;10.530;2023-06-22T01:51:56;17.20;99.90
16479;DHT22;8350;52.316;10.530;2023-06-22T01:54:23;17.20;99.90
16479;DHT22;8350;52.316;10.530;2023-06-22T01:56:50;17.30;99.90
16479;DHT22;8350;52.316;10.530;2023-06-22T01:59:23;17.40;99.90
16479;DHT22;8350;52.316;10.530;2023-06-22T02:01:57;17.50;99.90
16479;DHT22;8350;52.316;10.530;2023-06-22T02:04:29;17.40;99.90
16479;DHT22;8350;52.316;10.530;2023-06-22T02:06:59;17.30;99.90
16479;DHT22;8350;52.316;10.530;2023-06-22T02:09:29;17.30;99.90
16479;DHT22;8350;52.316;10.530;2023-06-22T02:11:57;17.20;99.90
16479;DHT22;8350;52.316;10.530;2023-06-22T02:14:26;17.10;99.90
16479;DHT22;8350;52.316;10.530;2023-06-22T02:16:54;16.90;99.90
16479;DHT22;8350;52.316;10.530;2023-06-22T02:19:26;16.90;99.90
16479;DHT22;8350;52.316;10.530;2023-06-22T02:21:56;17.00;99.90
16479;DHT22;8350;52.316;10.530;2023-06-22T02:24:23;17.00;99.90
16479;DHT22;8350;52.316;10.530;2023-06-22T02:26:50;17.10;99.90
16479;DHT22;8350;52.316;10.530;2023-06-22T02:29:17;17.30;99.90
16479;DHT22;8350;52.316;10.530;2023-06-22T02:31:44;17.30;99.90
16479;DHT22;8350;52.316;10.530;2023-06-22T02:34:11;17.40;99.90
16479;DHT22;8350;52.316;10.530;2023-06-22T02:36:43;17.50;99.90
16479;DHT22;8350;52.316;10.530;2023-06-22T02:39:17;17.50;99.90
16479;DHT22;8350;52.316;10.530;2023-06-22T02:41:46;17.50;96.70
16479;DHT22;8350;52.316;10.530;2023-06-22T02:44:13;17.60;87.60
16479;DHT22;8350;52.316;10.530;2023-06-22T02:46:40;17.70;55.60
16479;DHT22;8350;52.316;10.530;2023-06-22T02:49:07;17.80;39.10
16479;DHT22;8350;52.316;10.530;2023-06-22T02:51:34;17.80;40.10
16479;DHT22;8350;52.316;10.530;2023-06-22T02:54:03;17.80;37.10
16479;DHT22;8350;52.316;10.530;2023-06-22T02:56:30;17.80;56.10
16479;DHT22;8350;52.316;10.530;2023-06-22T02:58:57;17.80;67.60
16479;DHT22;8350;52.316;10.530;2023-06-22T03:01:26;17.80;60.30
16479;DHT22;8350;52.316;10.530;2023-06-22T03:03:53;17.70;66.40
16479;DHT22;8350;52.316;10.530;2023-06-22T03:06:20;17.70;80.10
16479;DHT22;8350;52.316;10.530;2023-06-22T03:08:49;17.70;61.90
16479;DHT22;8350;52.316;10.530;2023-06-22T03:11:17;17.70;66.40
16479;DHT22;8350;52.316;10.530;2023-06-22T03:13:46;17.70;40.20
16479;DHT22;8350;52.316;10.530;2023-06-22T03:16:16;17.60;63.20
16479;DHT22;8350;52.316;10.530;2023-06-22T03:18:43;17.40;97.80
16479;DHT22;8350;52.316;10.530;2023-06-22T03:21:10;17.30;99.90
16479;DHT22;8350;52.316;10.530;2023-06-22T03:23:37;17.20;99.90
16479;DHT22;8350;52.316;10.530;2023-06-22T03:26:04;17.20;99.90
16479;DHT22;8350;52.316;10.530;2023-06-22T03:28:32;17.10;99.90
16479;DHT22;8350;52.316;10.530;2023-06-22T03:30:59;17.00;99.90
16479;DHT22;8350;52.316;10.530;2023-06-22T03:33:26;17.10;99.90
16479;DHT22;8350;52.316;10.530;2023-06-22T03:35:53;17.20;99.90
16479;DHT22;8350;52.316;10.530;2023-06-22T03:38:20;17.30;99.90
16479;DHT22;8350;52.316;10.530;2023-06-22T03:40:47;17.30;99.90
16479;DHT22;8350;52.316;10.530;2023-06-22T03:43:20;17.40;99.90
16479;DHT22;8350;52.316;10.530;2023-06-22T03:45:49;17.50;97.90
16479;DHT22;8350;52.316;10.530;2023-06-22T03:48:16;17.50;92.30
16479;DHT22;8350;52.316;10.530;2023-06-22T03:50:43;17.60;76.90
16479;DHT22;8350;52.316;10.530;2023-06-22T03:53:10;17.80;62.90
16479;DHT22;8350;52.316;10.530;2023-06-22T03:55:47;17.80;75.10
16479;DHT22;8350;52.316;10.530;2023-06-22T03:58:14;17.80;86.20
16479;DHT22;8350;52.316;10.530;2023-06-22T04:00:41;17.90;88.60
16479;DHT22;8350;52.316;10.530;2023-06-22T04:03:10;18.00;58.60
16479;DHT22;8350;52.316;10.530;2023-06-22T04:05:38;18.10;45.30
16479;DHT22;8350;52.316;10.530;2023-06-22T04:08:05;18.30;27.30
16479;DHT22;8350;52.316;10.530;2023-06-22T04:10:33;18.50;6.80
16479;DHT22;8350;52.316;10.530;2023-06-22T04:13:01;18.60;10.60
16479;DHT22;8350;52.316;10.530;2023-06-22T04:15:28;18.90;1.00
16479;DHT22;8350;52.316;10.530;2023-06-22T04:17:55;19.50;1.00
16479;DHT22;8350;52.316;10.530;2023-06-22T04:20:24;20.20;1.00
16479;DHT22;8350;52.316;10.530;2023-06-22T04:22:52;20.80;1.00
16479;DHT22;8350;52.316;10.530;2023-06-22T04:25:19;21.20;1.00
16479;DHT22;8350;52.316;10.530;2023-06-22T04:27:46;21.30;1.00
16479;DHT22;8350;52.316;10.530;2023-06-22T04:30:14;21.20;1.00
16479;DHT22;8350;52.316;10.530;2023-06-22T04:32:45;21.00;1.00
16479;DHT22;8350;52.316;10.530;2023-06-22T04:35:23;20.80;1.00
16479;DHT22;8350;52.316;10.530;2023-06-22T04:37:50;20.60;1.00
16479;DHT22;8350;52.316;10.530;2023-06-22T04:40:21;20.40;1.00
16479;DHT22;8350;52.316;10.530;2023-06-22T04:42:48;20.30;1.00
16479;DHT22;8350;52.316;10.530;2023-06-22T04:45:17;20.20;1.00
16479;DHT22;8350;52.316;10.530;2023-06-22T04:47:44;20.20;1.00
16479;DHT22;8350;52.316;10.530;2023-06-22T04:50:13;20.10;1.00
16479;DHT22;8350;52.316;10.530;2023-06-22T04:52:43;20.00;1.00
16479;DHT22;8350;52.316;10.530;2023-06-22T04:55:11;19.90;1.00
16479;DHT22;8350;52.316;10.530;2023-06-22T04:57:57;19.80;1.00
16479;DHT22;8350;52.316;10.530;2023-06-22T05:00:31;19.70;1.00
16479;DHT22;8350;52.316;10.530;2023-06-22T05:02:58;19.60;1.00
16479;DHT22;8350;52.316;10.530;2023-06-22T05:05:25;19.50;1.00
16479;DHT22;8350;52.316;10.530;2023-06-22T05:08:01;19.50;1.00
16479;DHT22;8350;52.316;10.530;2023-06-22T05:10:28;19.50;1.00
16479;DHT22;8350;52.316;10.530;2023-06-22T05:12:55;19.60;1.00
16479;DHT22;8350;52.316;10.530;2023-06-22T05:15:25;19.70;1.00
16479;DHT22;8350;52.316;10.530;2023-06-22T05:17:56;19.70;1.00
16479;DHT22;8350;52.316;10.530;2023-06-22T05:20:23;19.80;1.00
16479;DHT22;8350;52.316;10.530;2023-06-22T05:22:53;20.00;1.00
16479;DHT22;8350;52.316;10.530;2023-06-22T05:25:20;20.20;1.00
16479;DHT22;8350;52.316;10.530;2023-06-22T05:27:47;20.30;1.00
16479;DHT22;8350;52.316;10.530;2023-06-22T05:30:16;20.50;1.00
16479;DHT22;8350;52.316;10.530;2023-06-22T05:32:44;20.70;1.00
16479;DHT22;8350;52.316;10.530;2023-06-22T05:35:11;20.80;1.00
16479;DHT22;8350;52.316;10.530;2023-06-22T05:37:38;20.90;1.00
16479;DHT22;8350;52.316;10.530;2023-06-22T05:40:08;20.90;1.00
16479;DHT22;8350;52.316;10.530;2023-06-22T05:42:36;20.90;1.00
16479;DHT22;8350;52.316;10.530;2023-06-22T05:45:03;21.10;1.00
16479;DHT22;8350;52.316;10.530;2023-06-22T05:47:37;21.30;1.00
16479;DHT22;8350;52.316;10.530;2023-06-22T05:50:04;21.40;99.90
16479;DHT22;8350;52.316;10.530;2023-06-22T05:52:33;21.60;99.90
16479;DHT22;8350;52.316;10.530;2023-06-22T05:55:02;21.90;99.90
16479;DHT22;8350;52.316;10.530;2023-06-22T05:57:30;22.10;99.90
16479;DHT22;8350;52.316;10.530;2023-06-22T05:59:57;22.20;99.90
16479;DHT22;8350;52.316;10.530;2023-06-22T06:02:24;22.30;99.90
16479;DHT22;8350;52.316;10.530;2023-06-22T06:04:52;22.40;99.90
16479;DHT22;8350;52.316;10.530;2023-06-22T06:07:19;22.50;99.90
16479;DHT22;8350;52.316;10.530;2023-06-22T06:09:47;22.50;99.90
16479;DHT22;8350;52.316;10.530;2023-06-22T06:12:14;22.40;99.90
16479;DHT22;8350;52.316;10.530;2023-06-22T06:14:43;22.40;99.90
16479;DHT22;8350;52.316;10.530;2023-06-22T06:17:10;22.30;99.90
16479;DHT22;8350;52.316;10.530;2023-06-22T06:19:37;22.10;99.90
16479;DHT22;8350;52.316;10.530;2023-06-22T06:22:04;22.10;1.00
16479;DHT22;8350;52.316;10.530;2023-06-22T06:24:30;22.00;1.00
16479;DHT22;8350;52.316;10.530;2023-06-22T06:26:58;21.90;1.00
16479;DHT22;8350;52.316;10.530;2023-06-22T06:29:25;22.00;1.00
16479;DHT22;8350;52.316;10.530;2023-06-22T06:31:53;22.00;1.00
16479;DHT22;8350;52.316;10.530;2023-06-22T06:34:20;22.10;1.00
16479;DHT22;8350;52.316;10.530;2023-06-22T06:36:51;22.20;1.00
16479;DHT22;8350;52.316;10.530;2023-06-22T06:39:18;22.40;1.00
16479;DHT22;8350;52.316;10.530;2023-06-22T06:41:46;22.60;1.00
16479;DHT22;8350;52.316;10.530;2023-06-22T06:44:13;22.70;1.00
16479;DHT22;8350;52.316;10.530;2023-06-22T06:46:40;22.90;1.00
16479;DHT22;8350;52.316;10.530;2023-06-22T06:49:09;23.00;99.90
16479;DHT22;8350;52.316;10.530;2023-06-22T06:51:36;23.10;99.90
16479;DHT22;8350;52.316;10.530;2023-06-22T06:54:05;23.10;99.90
16479;DHT22;8350;52.316;10.530;2023-06-22T06:56:33;23.10;99.90
16479;DHT22;8350;52.316;10.530;2023-06-22T06:59:00;23.10;99.90
16479;DHT22;8350;52.316;10.530;2023-06-22T07:01:27;23.10;99.90
16479;DHT22;8350;52.316;10.530;2023-06-22T07:03:59;23.00;99.90
16479;DHT22;8350;52.316;10.530;2023-06-22T07:06:27;22.90;99.90
16479;DHT22;8350;52.316;10.530;2023-06-22T07:08:57;22.90;99.90
16479;DHT22;8350;52.316;10.530;2023-06-22T07:11:24;22.90;99.90
16479;DHT22;8350;52.316;10.530;2023-06-22T07:13:51;22.90;99.90
16479;DHT22;8350;52.316;10.530;2023-06-22T07:16:18;22.90;99.90
16479;DHT22;8350;52.316;10.530;2023-06-22T07:18:45;23.00;99.90
16479;DHT22;8350;52.316;10.530;2023-06-22T07:21:12;23.00;99.90
16479;DHT22;8350;52.316;10.530;2023-06-22T07:23:40;23.10;99.90
16479;DHT22;8350;52.316;10.530;2023-06-22T07:26:07;23.10;99.90
16479;DHT22;8350;52.316;10.530;2023-06-22T07:28:34;23.20;99.90
16479;DHT22;8350;52.316;10.530;2023-06-22T07:31:03;23.20;99.90
16479;DHT22;8350;52.316;10.530;2023-06-22T07:33:30;23.40;90.40
16479;DHT22;8350;52.316;10.530;2023-06-22T07:35:57;23.40;87.90
16479;DHT22;8350;52.316;10.530;2023-06-22T07:38:24;23.50;69.50
16479;DHT22;8350;52.316;10.530;2023-06-22T07:40:53;23.60;1.00
16479;DHT22;8350;52.316;10.530;2023-06-22T07:43:20;23.60;1.00
16479;DHT22;8350;52.316;10.530;2023-06-22T07:45:50;23.70;1.00
16479;DHT22;8350;52.316;10.530;2023-06-22T07:48:20;23.80;1.00
16479;DHT22;8350;52.316;10.530;2023-06-22T07:50:50;23.80;1.00
16479;DHT22;8350;52.316;10.530;2023-06-22T07:53:18;24.00;1.00
16479;DHT22;8350;52.316;10.530;2023-06-22T07:55:45;24.00;1.00
16479;DHT22;8350;52.316;10.530;2023-06-22T07:58:13;24.10;1.00
16479;DHT22;8350;52.316;10.530;2023-06-22T08:00:41;24.10;1.00
16479;DHT22;8350;52.316;10.530;2023-06-22T08:03:08;24.30;1.00
16479;DHT22;8350;52.316;10.530;2023-06-22T08:05:35;24.50;1.00
16479;DHT22;8350;52.316;10.530;2023-06-22T08:08:05;24.90;99.90
16479;DHT22;8350;52.316;10.530;2023-06-22T08:10:32;25.10;99.90
16479;DHT22;8350;52.316;10.530;2023-06-22T08:13:02;25.20;40.50
16479;DHT22;8350;52.316;10.530;2023-06-22T08:15:30;25.20;50.60
16479;DHT22;8350;52.316;10.530;2023-06-22T08:18:00;25.10;99.90
16479;DHT22;8350;52.316;10.530;2023-06-22T08:20:27;25.00;99.90
16479;DHT22;8350;52.316;10.530;2023-06-22T08:22:55;25.00;99.90
16479;DHT22;8350;52.316;10.530;2023-06-22T08:25:23;25.00;99.90
16479;DHT22;8350;52.316;10.530;2023-06-22T08:27:50;24.90;99.90
16479;DHT22;8350;52.316;10.530;2023-06-22T08:30:17;24.90;99.90
16479;DHT22;8350;52.316;10.530;2023-06-22T08:32:46;24.80;99.90
16479;DHT22;8350;52.316;10.530;2023-06-22T08:35:13;24.90;99.90
16479;DHT22;8350;52.316;10.530;2023-06-22T08:37:42;24.90;99.90
16479;DHT22;8350;52.316;10.530;2023-06-22T08:40:16;24.90;99.90
16479;DHT22;8350;52.316;10.530;2023-06-22T08:42:46;24.90;1.00
16479;DHT22;8350;52.316;10.530;2023-06-22T08:45:14;24.90;1.00
16479;DHT22;8350;52.316;10.530;2023-06-22T08:47:41;25.00;1.00
16479;DHT22;8350;52.316;10.530;2023-06-22T08:50:11;25.00;99.90
16479;DHT22;8350;52.316;10.530;2023-06-22T08:52:39;24.90;99.90
16479;DHT22;8350;52.316;10.530;2023-06-22T08:55:08;24.90;1.00
16479;DHT22;8350;52.316;10.530;2023-06-22T08:57:37;24.90;1.00
16479;DHT22;8350;52.316;10.530;2023-06-22T09:00:06;25.00;1.00
16479;DHT22;8350;52.316;10.530;2023-06-22T09:02:41;25.00;99.90
16479;DHT22;8350;52.316;10.530;2023-06-22T09:05:10;25.00;1.00
16479;DHT22;8350;52.316;10.530;2023-06-22T09:07:37;25.20;1.00
16479;DHT22;8350;52.316;10.530;2023-06-22T09:10:05;25.30;99.90
16479;DHT22;8350;52.316;10.530;2023-06-22T09:12:32;25.50;99.90
16479;DHT22;8350;52.316;10.530;2023-06-22T09:14:59;25.60;99.90
16479;DHT22;8350;52.316;10.530;2023-06-22T09:17:27;25.60;99.90
16479;DHT22;8350;52.316;10.530;2023-06-22T09:19:54;25.70;99.90
16479;DHT22;8350;52.316;10.530;2023-06-22T09:22:23;25.80;99.90
16479;DHT22;8350;52.316;10.530;2023-06-22T09:24:54;25.70;99.90
16479;DHT22;8350;52.316;10.530;2023-06-22T09:27:21;25.60;99.90
16479;DHT22;8350;52.316;10.530;2023-06-22T09:29:48;25.60;99.90
16479;DHT22;8350;52.316;10.530;2023-06-22T09:32:16;25.80;99.90
16479;DHT22;8350;52.316;10.530;2023-06-22T09:34:42;26.10;99.90
16479;DHT22;8350;52.316;10.530;2023-06-22T09:37:09;26.30;99.90
16479;DHT22;8350;52.316;10.530;2023-06-22T09:39:38;26.40;1.00
16479;DHT22;8350;52.316;10.530;2023-06-22T09:42:06;26.70;1.00
16479;DHT22;8350;52.316;10.530;2023-06-22T09:44:33;27.00;1.00
16479;DHT22;8350;52.316;10.530;2023-06-22T09:47:00;27.20;99.90
16479;DHT22;8350;52.316;10.530;2023-06-22T09:49:27;27.30;99.90
16479;DHT22;8350;52.316;10.530;2023-06-22T09:51:54;27.40;15.10
16479;DHT22;8350;52.316;10.530;2023-06-22T09:54:21;27.50;82.80
16479;DHT22;8350;52.316;10.530;2023-06-22T09:56:49;27.60;1.00
16479;DHT22;8350;52.316;10.530;2023-06-22T09:59:16;27.80;1.00
16479;DHT22;8350;52.316;10.530;2023-06-22T10:01:43;27.80;99.90
16479;DHT22;8350;52.316;10.530;2023-06-22T10:04:10;27.70;99.90
16479;DHT22;8350;52.316;10.530;2023-06-22T10:06:40;27.70;1.00
16479;DHT22;8350;52.316;10.530;2023-06-22T10:09:07;27.80;99.90
16479;DHT22;8350;52.316;10.530;2023-06-22T10:11:34;27.80;1.00
16479;DHT22;8350;52.316;10.530;2023-06-22T10:14:03;27.80;99.90
16479;DHT22;8350;52.316;10.530;2023-06-22T10:16:31;27.80;99.90
16479;DHT22;8350;52.316;10.530;2023-06-22T10:18:58;27.60;99.90
16479;DHT22;8350;52.316;10.530;2023-06-22T10:21:25;27.60;99.90
16479;DHT22;8350;52.316;10.530;2023-06-22T10:23:52;27.70;99.90
16479;DHT22;8350;52.316;10.530;2023-06-22T10:26:19;27.80;98.80
16479;DHT22;8350;52.316;10.530;2023-06-22T10:28:46;27.80;99.90
16479;DHT22;8350;52.316;10.530;2023-06-22T10:31:14;28.00;1.00
16479;DHT22;8350;52.316;10.530;2023-06-22T10:33:42;28.10;1.00
16479;DHT22;8350;52.316;10.530;2023-06-22T10:36:09;28.00;99.90
16479;DHT22;8350;52.316;10.530;2023-06-22T10:38:36;28.10;99.90
16479;DHT22;8350;52.316;10.530;2023-06-22T10:41:03;28.10;99.90
16479;DHT22;8350;52.316;10.530;2023-06-22T10:43:30;28.20;99.90
16479;DHT22;8350;52.316;10.530;2023-06-22T10:45:57;28.20;99.90
16479;DHT22;8350;52.316;10.530;2023-06-22T10:48:26;28.30;1.00
16479;DHT22;8350;52.316;10.530;2023-06-22T10:50:53;28.30;99.90
16479;DHT22;8350;52.316;10.530;2023-06-22T10:53:20;28.40;99.90
16479;DHT22;8350;52.316;10.530;2023-06-22T10:55:47;28.40;99.90
16479;DHT22;8350;52.316;10.530;2023-06-22T10:58:14;28.50;99.90
16479;DHT22;8350;52.316;10.530;2023-06-22T11:00:41;28.60;99.90
16479;DHT22;8350;52.316;10.530;2023-06-22T11:03:08;28.50;99.90
16479;DHT22;8350;52.316;10.530;2023-06-22T11:05:36;28.70;1.00
16479;DHT22;8350;52.316;10.530;2023-06-22T11:08:04;29.00;99.90
16479;DHT22;8350;52.316;10.530;2023-06-22T11:10:31;29.40;1.00
16479;DHT22;8350;52.316;10.530;2023-06-22T11:12:58;29.80;99.90
16479;DHT22;8350;52.316;10.530;2023-06-22T11:15:24;30.00;99.90
16479;DHT22;8350;52.316;10.530;2023-06-22T11:17:51;29.80;1.00
16479;DHT22;8350;52.316;10.530;2023-06-22T11:20:18;29.80;1.00
16479;DHT22;8350;52.316;10.530;2023-06-22T11:22:47;29.70;1.00
16479;DHT22;8350;52.316;10.530;2023-06-22T11:25:22;29.70;1.00
16479;DHT22;8350;52.316;10.530;2023-06-22T11:27:49;29.80;1.00
16479;DHT22;8350;52.316;10.530;2023-06-22T11:30:16;30.10;1.00
16479;DHT22;8350;52.316;10.530;2023-06-22T11:32:44;30.30;1.00
16479;DHT22;8350;52.316;10.530;2023-06-22T11:35:11;30.80;1.00
16479;DHT22;8350;52.316;10.530;2023-06-22T11:37:37;31.00;99.90
16479;DHT22;8350;52.316;10.530;2023-06-22T11:40:07;31.40;99.90
16479;DHT22;8350;52.316;10.530;2023-06-22T11:42:34;31.40;1.00
16479;DHT22;8350;52.316;10.530;2023-06-22T11:45:02;31.60;1.00
16479;DHT22;8350;52.316;10.530;2023-06-22T11:47:30;31.80;1.00
16479;DHT22;8350;52.316;10.530;2023-06-22T11:49:57;31.80;1.00
16479;DHT22;8350;52.316;10.530;2023-06-22T11:52:24;31.60;99.90
16479;DHT22;8350;52.316;10.530;2023-06-22T11:54:51;30.80;1.00
16479;DHT22;8350;52.316;10.530;2023-06-22T11:57:20;30.30;1.00
16479;DHT22;8350;52.316;10.530;2023-06-22T11:59:47;30.50;1.00
16479;DHT22;8350;52.316;10.530;2023-06-22T12:02:14;30.50;1.00
16479;DHT22;8350;52.316;10.530;2023-06-22T12:04:41;30.80;1.00
16479;DHT22;8350;52.316;10.530;2023-06-22T12:07:08;31.10;1.00
16479;DHT22;8350;52.316;10.530;2023-06-22T12:09:35;31.10;1.00
16479;DHT22;8350;52.316;10.530;2023-06-22T12:12:03;30.90;1.00
16479;DHT22;8350;52.316;10.530;2023-06-22T12:14:34;30.70;1.00
16479;DHT22;8350;52.316;10.530;2023-06-22T12:17:01;30.50;1.00
16479;DHT22;8350;52.316;10.530;2023-06-22T12:19:28;30.30;1.00
16479;DHT22;8350;52.316;10.530;2023-06-22T12:21:55;30.30;1.00
16479;DHT22;8350;52.316;10.530;2023-06-22T12:24:25;30.10;1.00
16479;DHT22;8350;52.316;10.530;2023-06-22T12:26:52;30.40;1.00
16479;DHT22;8350;52.316;10.530;2023-06-22T12:29:19;30.50;1.00
16479;DHT22;8350;52.316;10.530;2023-06-22T12:31:48;30.40;99.90
16479;DHT22;8350;52.316;10.530;2023-06-22T12:34:18;30.40;1.00
16479;DHT22;8350;52.316;10.530;2023-06-22T12:36:45;30.30;99.90
16479;DHT22;8350;52.316;10.530;2023-06-22T12:39:16;30.20;1.00
16479;DHT22;8350;52.316;10.530;2023-06-22T12:41:46;30.10;99.90
16479;DHT22;8350;52.316;10.530;2023-06-22T12:44:13;29.90;99.90
16479;DHT22;8350;52.316;10.530;2023-06-22T12:46:40;29.90;99.90
16479;DHT22;8350;52.316;10.530;2023-06-22T12:49:10;29.90;99.90
16479;DHT22;8350;52.316;10.530;2023-06-22T12:51:40;30.10;99.90
16479;DHT22;8350;52.316;10.530;2023-06-22T12:54:07;30.30;99.90
16479;DHT22;8350;52.316;10.530;2023-06-22T12:56:34;30.20;99.90
16479;DHT22;8350;52.316;10.530;2023-06-22T12:59:01;30.40;99.90
16479;DHT22;8350;52.316;10.530;2023-06-22T13:01:28;30.30;99.90
16479;DHT22;8350;52.316;10.530;2023-06-22T13:03:55;30.30;99.90
16479;DHT22;8350;52.316;10.530;2023-06-22T13:06:25;30.30;99.90
16479;DHT22;8350;52.316;10.530;2023-06-22T13:08:52;30.30;99.90
16479;DHT22;8350;52.316;10.530;2023-06-22T13:11:19;30.20;99.90
16479;DHT22;8350;52.316;10.530;2023-06-22T13:13:46;30.30;99.90
16479;DHT22;8350;52.316;10.530;2023-06-22T13:16:13;30.50;99.90
16479;DHT22;8350;52.316;10.530;2023-06-22T13:18:40;30.40;99.90
16479;DHT22;8350;52.316;10.530;2023-06-22T13:21:07;30.30;99.90
16479;DHT22;8350;52.316;10.530;2023-06-22T13:23:37;30.10;99.90
16479;DHT22;8350;52.316;10.530;2023-06-22T13:26:04;30.20;99.90
16479;DHT22;8350;52.316;10.530;2023-06-22T13:28:31;30.30;99.90
16479;DHT22;8350;52.316;10.530;2023-06-22T13:30:58;30.30;99.90
16479;DHT22;8350;52.316;10.530;2023-06-22T13:33:25;30.20;99.90
16479;DHT22;8350;52.316;10.530;2023-06-22T13:35:52;30.00;99.90
16479;DHT22;8350;52.316;10.530;2023-06-22T13:38:19;29.90;99.90
16479;DHT22;8350;52.316;10.530;2023-06-22T13:40:47;29.90;99.90
16479;DHT22;8350;52.316;10.530;2023-06-22T13:43:15;30.10;99.90
16479;DHT22;8350;52.316;10.530;2023-06-22T13:45:42;29.90;99.90
16479;DHT22;8350;52.316;10.530;2023-06-22T13:48:09;29.80;99.90
16479;DHT22;8350;52.316;10.530;2023-06-22T13:50:36;29.70;99.90
16479;DHT22;8350;52.316;10.530;2023-06-22T13:55:37;29.50;99.90
16479;DHT22;8350;52.316;10.530;2023-06-22T13:58:06;29.50;99.90
16479;DHT22;8350;52.316;10.530;2023-06-22T14:00:33;29.50;99.90
16479;DHT22;8350;52.316;10.530;2023-06-22T14:03:00;29.50;99.90
16479;DHT22;8350;52.316;10.530;2023-06-22T14:05:29;29.60;99.90
16479;DHT22;8350;52.316;10.530;2023-06-22T14:07:56;29.50;99.90
16479;DHT22;8350;52.316;10.530;2023-06-22T14:10:23;29.60;99.90
16479;DHT22;8350;52.316;10.530;2023-06-22T14:12:50;29.60;99.90
16479;DHT22;8350;52.316;10.530;2023-06-22T14:15:21;29.60;99.90
16479;DHT22;8350;52.316;10.530;2023-06-22T14:17:48;29.40;1.00
16479;DHT22;8350;52.316;10.530;2023-06-22T14:20:15;29.00;1.00
16479;DHT22;8350;52.316;10.530;2023-06-22T14:22:42;28.60;99.90
16479;DHT22;8350;52.316;10.530;2023-06-22T14:25:09;28.10;99.90
16479;DHT22;8350;52.316;10.530;2023-06-22T14:27:36;27.90;99.90
16479;DHT22;8350;52.316;10.530;2023-06-22T14:30:04;27.90;1.00
16479;DHT22;8350;52.316;10.530;2023-06-22T14:32:32;27.70;1.00
16479;DHT22;8350;52.316;10.530;2023-06-22T14:34:59;27.50;1.00
16479;DHT22;8350;52.316;10.530;2023-06-22T14:37:26;27.50;1.00
16479;DHT22;8350;52.316;10.530;2023-06-22T14:39:54;27.30;1.00
16479;DHT22;8350;52.316;10.530;2023-06-22T14:42:21;27.20;99.90
16479;DHT22;8350;52.316;10.530;2023-06-22T14:47:43;27.10;99.90
16479;DHT22;8350;52.316;10.530;2023-06-22T14:50:10;27.20;99.90
16479;DHT22;8350;52.316;10.530;2023-06-22T14:52:37;27.20;99.90
16479;DHT22;8350;52.316;10.530;2023-06-22T14:55:05;27.30;99.90
16479;DHT22;8350;52.316;10.530;2023-06-22T14:57:32;27.40;12.90
16479;DHT22;8350;52.316;10.530;2023-06-22T14:59:59;27.40;34.90
16479;DHT22;8350;52.316;10.530;2023-06-22T15:02:27;27.20;99.90
16479;DHT22;8350;52.316;10.530;2023-06-22T15:04:56;27.10;99.90
16479;DHT22;8350;52.316;10.530;2023-06-22T15:07:23;27.20;1.00
16479;DHT22;8350;52.316;10.530;2023-06-22T15:09:53;27.30;99.90
16479;DHT22;8350;52.316;10.530;2023-06-22T15:12:20;27.50;1.00
16479;DHT22;8350;52.316;10.530;2023-06-22T15:14:47;27.50;1.00
16479;DHT22;8350;52.316;10.530;2023-06-22T15:19:57;27.60;99.90
16479;DHT22;8350;52.316;10.530;2023-06-22T15:22:25;27.60;51.90
16479;DHT22;8350;52.316;10.530;2023-06-22T15:24:52;27.60;99.90
16479;DHT22;8350;52.316;10.530;2023-06-22T15:27:19;27.60;99.90
16479;DHT22;8350;52.316;10.530;2023-06-22T15:29:46;27.50;99.90
16479;DHT22;8350;52.316;10.530;2023-06-22T15:32:13;27.20;99.90
16479;DHT22;8350;52.316;10.530;2023-06-22T15:34:40;27.00;1.00
16479;DHT22;8350;52.316;10.530;2023-06-22T15:37:09;26.70;1.00
16479;DHT22;8350;52.316;10.530;2023-06-22T15:39:38;26.70;5.40
16479;DHT22;8350;52.316;10.530;2023-06-22T15:42:06;26.50;1.90
16479;DHT22;8350;52.316;10.530;2023-06-22T15:44:33;26.30;99.90
16479;DHT22;8350;52.316;10.530;2023-06-22T15:47:00;26.20;99.90
16479;DHT22;8350;52.316;10.530;2023-06-22T15:49:27;26.20;99.90